Sinclair, Maine
Current Conditions -  °F | °C
As of 1:53 PM on Thursday 23 Oct 2014 (Local Time) from KFVE Reporting Station
Broken Clouds Broken Clouds  
Wind Chill: 37°   Ceiling: 10000
Heat Index: 43°   Visibility: 10mi
Dew Point: 35°   Wind: 12mph
Humidity: 74%   Direction: 30°NNE
Pressure: 30.1"   Gusts: NA
Location:  47.17°N, 68.27°W
Report Text: KFVE 231753Z AUTO 03010KT 10SM SCT018 BKN100 06/02 A3010 RMK AO2 SLP199 T00610017 10067 20039 58027
Loading
Personal Weather Stations






























Interactive Weather Map
Tropical Storm Tracking
New forecast layout! Learn more

10-Day Weather Forecast

Advertisements
Track Severe Weather on mobile